Time;durP1;ratioP1;P1;durP2;ratioP2;P2;SDS_P1;SDS_P2;PMS_P1;PMS_P2;Temp;Humidity;BMP_temperature;BMP_pressure;BME280_temperature;BME280_humidity;BME280_pressure;Samples;Min_cycle;Max_cycle;Signal;HPM_P1;HPM_P2
2021/06/10 00:00:51;;;;;;;8.65;5.33;;;;;;;17.42;87.80;100277.96;1733099;81;28752;-55
2021/06/10 00:03:18;;;;;;;9.85;5.20;;;;;;;17.36;88.03;100267.58;1731982;81;20940;-56
2021/06/10 00:05:44;;;;;;;10.80;5.40;;;;;;;17.31;88.39;100268.36;1733811;81;21250;-56
2021/06/10 00:08:12;;;;;;;11.10;4.45;;;;;;;17.26;88.53;100272.78;1734696;81;21062;-56
2021/06/10 00:10:42;;;;;;;8.63;4.80;;;;;;;17.22;88.97;100285.28;1734615;80;21510;-56
2021/06/10 00:13:09;;;;;;;7.83;4.62;;;;;;;17.15;89.12;100273.53;1727945;80;21501;-56
2021/06/10 00:15:37;;;;;;;7.70;5.08;;;;;;;17.07;89.74;100277.25;1732927;81;21501;-55
2021/06/10 00:18:05;;;;;;;13.30;5.40;;;;;;;16.97;90.18;100273.44;1735356;80;21434;-56
2021/06/10 00:20:33;;;;;;;13.88;5.47;;;;;;;16.90;90.73;100263.00;1734666;81;21139;-56
2021/06/10 00:22:59;;;;;;;7.95;5.33;;;;;;;16.88;91.12;100262.75;1740427;80;21012;-56
2021/06/10 00:25:27;;;;;;;12.53;6.00;;;;;;;16.87;91.44;100267.78;1739206;80;21548;-56
2021/06/10 00:27:53;;;;;;;13.15;5.70;;;;;;;16.85;91.57;100265.17;1735389;80;20964;-56
2021/06/10 00:30:20;;;;;;;10.48;5.33;;;;;;;16.85;91.78;100262.97;1734185;81;21442;-57
2021/06/10 00:32:48;;;;;;;10.28;5.55;;;;;;;16.82;91.98;100262.69;1743962;80;20996;-57
2021/06/10 00:35:16;;;;;;;11.55;5.90;;;;;;;16.79;92.19;100283.20;1744547;80;21028;-57
2021/06/10 00:37:43;;;;;;;10.82;6.10;;;;;;;16.74;92.34;100271.83;1732394;82;21195;-56
2021/06/10 00:40:11;;;;;;;11.43;4.92;;;;;;;16.71;92.76;100277.46;1737746;81;21028;-57
2021/06/10 00:42:39;;;;;;;8.55;5.30;;;;;;;16.70;93.15;100279.79;1737026;80;20969;-56
2021/06/10 00:45:12;;;;;;;7.35;4.60;;;;;;;16.67;93.20;100277.27;1738594;80;20951;-56
2021/06/10 00:47:38;;;;;;;10.35;4.22;;;;;;;16.64;93.22;100286.95;1684533;82;21551;-56
2021/06/10 00:50:06;;;;;;;6.50;4.28;;;;;;;16.59;93.28;100279.17;1689588;83;21060;-56
2021/06/10 00:52:33;;;;;;;9.23;4.15;;;;;;;16.54;93.41;100278.11;1680538;84;20974;-57
2021/06/10 00:55:00;;;;;;;12.03;4.95;;;;;;;16.49;93.62;100274.86;1679947;84;21016;-57
2021/06/10 00:57:26;;;;;;;6.42;4.30;;;;;;;16.46;93.86;100273.69;1729244;81;21234;-56
2021/06/10 00:59:53;;;;;;;6.28;3.35;;;;;;;16.43;94.25;100273.43;1721699;80;21093;-56
2021/06/10 01:02:20;;;;;;;11.95;5.55;;;;;;;16.40;94.48;100280.87;1730066;81;25298;-56
2021/06/10 01:04:47;;;;;;;10.20;5.15;;;;;;;16.36;94.47;100292.88;1728261;81;21584;-56
2021/06/10 01:07:40;;;;;;;8.43;5.20;;;;;;;16.33;94.92;100300.70;1727187;81;20956;-56
2021/06/10 01:10:24;;;;;;;7.17;5.22;;;;;;;16.31;94.97;100287.30;1720331;81;20969;-56
2021/06/10 01:13:20;;;;;;;7.50;5.35;;;;;;;16.32;95.21;100290.85;1607325;84;21014;-56
2021/06/10 01:15:47;;;;;;;12.15;5.30;;;;;;;16.31;95.17;100283.23;1659050;85;21885;-57
2021/06/10 01:18:14;;;;;;;7.62;4.80;;;;;;;16.30;95.04;100289.62;1724964;81;21456;-56
2021/06/10 01:20:43;;;;;;;8.55;5.15;;;;;;;16.30;95.08;100288.73;1702341;81;21042;-57
2021/06/10 01:23:36;;;;;;;9.83;5.87;;;;;;;16.28;95.07;100294.27;1723319;81;21065;-56
2021/06/10 01:26:12;;;;;;;12.20;6.17;;;;;;;16.29;95.49;100303.23;1725119;81;21552;-56
2021/06/10 01:28:38;;;;;;;10.93;5.17;;;;;;;16.27;95.85;100303.35;1726268;81;21577;-57
2021/06/10 01:31:08;;;;;;;10.68;4.80;;;;;;;16.27;95.87;100306.05;1714563;81;20886;-56
2021/06/10 01:33:41;;;;;;;12.82;5.33;;;;;;;16.27;95.78;100308.76;1726664;81;21004;-57
2021/06/10 01:36:18;;;;;;;14.53;5.12;;;;;;;16.26;95.67;100301.61;1723411;81;21671;-57
2021/06/10 01:38:49;;;;;;;8.85;5.35;;;;;;;16.25;95.67;100299.00;1729706;81;20975;-56
2021/06/10 01:41:17;;;;;;;9.40;5.65;;;;;;;16.24;95.63;100300.82;1726493;81;22546;-56
2021/06/10 01:43:44;;;;;;;9.00;5.78;;;;;;;16.25;95.66;100299.88;1729910;81;21134;-56
2021/06/10 01:46:11;;;;;;;14.83;5.33;;;;;;;16.25;95.66;100279.59;1700867;81;21064;-56
2021/06/10 01:48:40;;;;;;;9.55;4.58;;;;;;;16.27;95.72;100282.19;1732364;81;21017;-57
2021/06/10 01:51:06;;;;;;;6.17;4.60;;;;;;;16.28;95.53;100296.09;1731471;81;21057;-57
2021/06/10 01:53:43;;;;;;;6.53;5.28;;;;;;;16.28;95.41;100288.86;1732580;81;21705;-57
2021/06/10 01:56:09;;;;;;;9.18;5.08;;;;;;;16.28;95.26;100287.50;1732573;80;20981;-57
2021/06/10 01:58:37;;;;;;;8.73;4.40;;;;;;;16.27;95.04;100302.00;1732027;81;21373;-57
2021/06/10 02:01:04;;;;;;;9.78;4.47;;;;;;;16.25;94.86;100293.12;1733723;81;21594;-57
2021/06/10 02:03:30;;;;;;;10.98;4.30;;;;;;;16.24;94.68;100297.27;1729955;81;20973;-56
2021/06/10 02:05:57;;;;;;;7.92;4.17;;;;;;;16.21;94.74;100301.03;1733419;81;21981;-57
2021/06/10 02:08:24;;;;;;;11.38;5.20;;;;;;;16.18;94.79;100310.70;1734523;81;20955;-57
2021/06/10 02:10:54;;;;;;;8.73;5.22;;;;;;;16.15;94.87;100304.14;1730444;80;20877;-57
2021/06/10 02:13:22;;;;;;;8.70;5.28;;;;;;;16.13;95.21;100307.44;1728365;81;21112;-56
2021/06/10 02:15:49;;;;;;;14.30;5.12;;;;;;;16.13;95.44;100305.59;1733089;81;21028;-56
2021/06/10 02:18:17;;;;;;;7.20;4.95;;;;;;;16.15;95.56;100301.44;1729361;81;21113;-56
2021/06/10 02:20:44;;;;;;;13.10;4.70;;;;;;;16.17;95.40;100294.09;1732765;81;20998;-56
2021/06/10 02:23:10;;;;;;;7.95;4.75;;;;;;;16.21;95.27;100297.47;1730470;81;21008;-56
2021/06/10 02:25:38;;;;;;;7.95;4.58;;;;;;;16.25;95.00;100299.88;1729632;81;21092;-56
2021/06/10 02:28:05;;;;;;;8.75;4.80;;;;;;;16.29;94.67;100296.00;1731927;80;23019;-57
2021/06/10 02:30:33;;;;;;;10.30;4.53;;;;;;;16.38;94.50;100306.70;1733340;81;21091;-56
2021/06/10 02:32:59;;;;;;;6.55;4.83;;;;;;;16.49;94.29;100315.45;1731258;81;21023;-57
2021/06/10 02:35:26;;;;;;;9.00;5.00;;;;;;;16.58;93.58;100305.84;1731996;81;20910;-57
2021/06/10 02:37:58;;;;;;;7.20;4.95;;;;;;;16.64;92.90;100304.07;1729886;81;20950;-57
2021/06/10 02:40:38;;;;;;;10.15;5.58;;;;;;;16.66;92.11;100306.19;1730971;81;20950;-59
2021/06/10 02:43:05;;;;;;;8.83;5.50;;;;;;;16.66;91.98;100308.01;1727612;81;22598;-57
2021/06/10 02:45:34;;;;;;;8.00;5.58;;;;;;;16.67;91.60;100312.45;1731058;81;20906;-57
2021/06/10 02:48:02;;;;;;;10.53;5.45;;;;;;;16.66;91.56;100312.06;1733552;81;21496;-57
2021/06/10 02:50:28;;;;;;;14.53;5.60;;;;;;;16.67;91.42;100317.39;1725447;81;21434;-57
2021/06/10 02:52:55;;;;;;;12.40;5.67;;;;;;;16.69;91.50;100318.62;1722732;81;21037;-56
2021/06/10 02:55:22;;;;;;;8.30;4.90;;;;;;;16.71;91.41;100318.06;1726167;81;22472;-56
2021/06/10 02:57:56;;;;;;;11.05;5.08;;;;;;;16.71;90.95;100324.83;1727880;81;20944;-57
2021/06/10 03:00:27;;;;;;;9.75;5.17;;;;;;;16.69;90.73;100324.91;1723080;81;20964;-57
2021/06/10 03:02:53;;;;;;;13.43;5.05;;;;;;;16.66;90.70;100327.84;1726268;81;40838;-56
2021/06/10 03:05:22;;;;;;;8.43;5.40;;;;;;;16.67;90.74;100323.27;1722379;81;20930;-57
2021/06/10 03:07:50;;;;;;;7.65;4.78;;;;;;;16.69;90.70;100326.73;1700036;82;21471;-57
2021/06/10 03:10:22;;;;;;;11.05;4.60;;;;;;;16.73;90.34;100316.11;1723311;81;21786;-57
2021/06/10 03:12:49;;;;;;;5.97;4.67;;;;;;;16.73;89.68;100341.83;1728938;81;20965;-57
2021/06/10 03:15:17;;;;;;;6.35;5.15;;;;;;;16.70;89.71;100329.86;1728626;81;21508;-57
2021/06/10 03:17:43;;;;;;;9.90;5.50;;;;;;;16.71;89.86;100319.41;1726657;81;20993;-57
2021/06/10 03:20:10;;;;;;;12.07;5.40;;;;;;;16.75;89.83;100324.99;1726722;81;21399;-57
2021/06/10 03:22:37;;;;;;;9.58;5.40;;;;;;;16.81;89.78;100324.57;1726153;81;21178;-57
2021/06/10 03:25:06;;;;;;;10.58;4.47;;;;;;;16.84;89.55;100317.59;1721595;81;21527;-57
2021/06/10 03:27:33;;;;;;;10.00;5.20;;;;;;;16.89;89.37;100320.84;1727346;80;22731;-57
2021/06/10 03:29:59;;;;;;;7.60;5.00;;;;;;;16.94;89.01;100322.39;1728759;81;21115;-57
2021/06/10 03:32:27;;;;;;;8.45;4.80;;;;;;;16.99;89.05;100326.52;1726252;81;21074;-57
2021/06/10 03:34:54;;;;;;;12.28;5.37;;;;;;;17.05;88.80;100319.83;1727443;81;21640;-57
2021/06/10 03:37:21;;;;;;;8.15;5.03;;;;;;;17.13;88.37;100322.89;1729067;81;21489;-57
2021/06/10 03:39:48;;;;;;;12.37;5.33;;;;;;;17.17;88.18;100318.98;1723992;81;21411;-57
2021/06/10 03:42:14;;;;;;;11.57;5.15;;;;;;;17.25;87.84;100328.41;1727156;81;20953;-57
2021/06/10 03:44:41;;;;;;;10.13;5.28;;;;;;;17.29;87.64;100320.44;1722118;81;21546;-57
2021/06/10 03:47:07;;;;;;;7.42;5.65;;;;;;;17.34;87.42;100330.45;1722875;81;21019;-57
2021/06/10 03:49:35;;;;;;;9.93;5.05;;;;;;;17.35;87.26;100324.06;1728814;81;21496;-57
2021/06/10 03:52:01;;;;;;;12.70;5.95;;;;;;;17.35;87.30;100322.70;1697231;81;21514;-56
2021/06/10 03:54:28;;;;;;;8.23;5.53;;;;;;;17.39;87.22;100324.72;1718459;81;21117;-57
2021/06/10 03:56:55;;;;;;;7.80;5.03;;;;;;;17.41;87.12;100338.55;1727811;81;21159;-56
2021/06/10 03:59:22;;;;;;;9.78;5.70;;;;;;;17.44;87.40;100330.20;1725885;81;21044;-57
2021/06/10 04:01:48;;;;;;;11.40;5.30;;;;;;;17.51;87.37;100328.41;1711278;81;21080;-57
2021/06/10 04:04:17;;;;;;;9.78;5.65;;;;;;;17.59;87.26;100324.68;1680749;83;20949;-57
2021/06/10 04:06:43;;;;;;;9.93;5.60;;;;;;;17.66;87.07;100335.45;1676127;84;21501;-57
2021/06/10 04:09:12;;;;;;;6.90;4.72;;;;;;;17.75;86.96;100334.77;1673823;83;20940;-56
2021/06/10 04:11:39;;;;;;;10.50;5.33;;;;;;;17.83;86.07;100333.38;1720567;81;21056;-57
2021/06/10 04:14:06;;;;;;;10.50;5.30;;;;;;;17.89;85.86;100334.28;1691741;83;21287;-57
2021/06/10 04:16:34;;;;;;;6.50;5.12;;;;;;;17.98;85.71;100334.09;1714377;81;20972;-57
2021/06/10 04:19:01;;;;;;;9.90;5.42;;;;;;;18.10;85.21;100326.94;1669363;84;21048;-57
2021/06/10 04:21:28;;;;;;;7.00;5.00;;;;;;;18.17;84.77;100328.21;1693137;83;21113;-57
2021/06/10 04:23:54;;;;;;;10.88;5.28;;;;;;;18.29;85.15;100341.36;1688924;83;20964;-57
2021/06/10 04:26:21;;;;;;;9.23;5.22;;;;;;;18.44;84.63;100330.72;1693372;83;21004;-57
2021/06/10 04:28:48;;;;;;;9.10;5.30;;;;;;;18.61;83.85;100326.73;1724313;81;21112;-57
2021/06/10 04:31:17;;;;;;;10.25;5.67;;;;;;;18.71;82.60;100343.19;1727500;81;21019;-56
2021/06/10 04:33:43;;;;;;;10.90;5.37;;;;;;;18.76;82.17;100334.70;1720463;81;20960;-56
2021/06/10 04:36:10;;;;;;;9.93;5.12;;;;;;;18.84;82.05;100336.33;1719032;81;20960;-57
2021/06/10 04:38:38;;;;;;;6.55;5.28;;;;;;;18.93;81.60;100337.98;1719684;81;20966;-57
2021/06/10 04:41:07;;;;;;;6.70;5.60;;;;;;;19.02;81.38;100337.29;1717719;81;21036;-57
2021/06/10 04:43:33;;;;;;;13.28;6.15;;;;;;;19.11;80.70;100339.28;1669295;84;21636;-57
2021/06/10 04:46:00;;;;;;;7.37;5.53;;;;;;;19.17;80.40;100340.18;1692923;83;21754;-57
2021/06/10 04:48:26;;;;;;;7.60;5.80;;;;;;;19.26;79.99;100344.52;1722366;81;21525;-57
2021/06/10 04:50:54;;;;;;;12.95;6.10;;;;;;;19.29;79.88;100337.47;1726458;81;20981;-58
2021/06/10 04:53:21;;;;;;;9.60;5.35;;;;;;;19.35;79.78;100341.09;1728414;81;21020;-58
2021/06/10 04:55:47;;;;;;;12.23;5.37;;;;;;;19.46;79.77;100343.81;1727645;81;21042;-58
2021/06/10 04:58:14;;;;;;;11.63;5.58;;;;;;;19.53;78.93;100346.03;1717237;81;21569;-58
2021/06/10 05:00:41;;;;;;;7.35;5.28;;;;;;;19.59;79.00;100346.92;1728932;81;21474;-58
2021/06/10 05:03:08;;;;;;;7.10;5.10;;;;;;;19.71;78.47;100351.88;1721839;81;21624;-58
2021/06/10 05:05:35;;;;;;;8.45;5.47;;;;;;;19.81;78.17;100354.72;1689107;83;21056;-58
2021/06/10 05:08:01;;;;;;;9.43;5.62;;;;;;;19.86;77.85;100351.12;1727527;81;21135;-58
2021/06/10 05:10:28;;;;;;;7.37;5.85;;;;;;;19.92;77.53;100356.09;1728929;80;21117;-59
2021/06/10 05:12:54;;;;;;;10.63;5.25;;;;;;;19.97;77.04;100355.22;1727984;81;20918;-59
2021/06/10 05:15:21;;;;;;;12.10;5.10;;;;;;;20.00;77.09;100356.33;1727223;81;20983;-57
2021/06/10 05:17:49;;;;;;;16.67;5.17;;;;;;;20.06;76.97;100352.77;1728734;81;20988;-57
2021/06/10 05:20:16;;;;;;;9.90;4.92;;;;;;;20.15;77.05;100350.64;1686010;83;21037;-57
2021/06/10 05:22:43;;;;;;;9.08;5.35;;;;;;;20.31;77.28;100359.28;1677247;84;21091;-58
2021/06/10 05:25:10;;;;;;;12.28;5.15;;;;;;;20.50;76.37;100355.03;1731417;81;21028;-58
2021/06/10 05:27:37;;;;;;;11.15;5.12;;;;;;;20.65;75.21;100354.23;1729126;80;20974;-58
2021/06/10 05:30:05;;;;;;;8.55;5.65;;;;;;;20.71;74.64;100356.44;1726321;81;21064;-58
2021/06/10 05:32:32;;;;;;;7.40;5.12;;;;;;;20.80;74.16;100371.17;1731931;81;21616;-58
2021/06/10 05:34:59;;;;;;;9.35;4.70;;;;;;;20.82;73.89;100357.44;1735626;81;21112;-58
2021/06/10 05:37:25;;;;;;;7.25;5.20;;;;;;;20.89;73.60;100374.98;1730718;81;21031;-58
2021/06/10 05:39:52;;;;;;;7.10;4.58;;;;;;;20.95;72.80;100372.23;1729557;81;20870;-59
2021/06/10 05:42:19;;;;;;;6.45;5.00;;;;;;;20.96;72.27;100373.97;1730624;81;21604;-59
2021/06/10 05:44:45;;;;;;;7.33;4.90;;;;;;;20.94;72.62;100371.88;1728875;81;21052;-59
2021/06/10 05:47:12;;;;;;;8.85;5.37;;;;;;;20.97;72.56;100357.98;1727702;81;21713;-59
2021/06/10 05:49:40;;;;;;;8.08;5.37;;;;;;;21.04;72.71;100364.62;1729013;81;21475;-59
2021/06/10 05:52:07;;;;;;;6.58;5.35;;;;;;;21.13;71.44;100366.58;1727013;81;21426;-59
2021/06/10 05:54:34;;;;;;;8.15;5.50;;;;;;;21.17;70.86;100365.80;1725383;80;21070;-59
2021/06/10 05:57:01;;;;;;;5.62;4.80;;;;;;;21.17;71.03;100373.48;1727095;81;20983;-57
2021/06/10 05:59:28;;;;;;;10.82;5.08;;;;;;;21.22;70.67;100373.58;1729172;81;21121;-58
2021/06/10 06:01:55;;;;;;;8.45;4.95;;;;;;;21.24;70.78;100379.77;1728539;81;25786;-58
2021/06/10 06:04:22;;;;;;;8.58;4.87;;;;;;;21.27;71.09;100370.83;1727760;81;21071;-58
2021/06/10 06:06:49;;;;;;;9.73;5.05;;;;;;;21.38;70.96;100378.08;1730247;80;20990;-58
2021/06/10 06:09:15;;;;;;;8.68;5.05;;;;;;;21.50;70.71;100377.99;1722140;80;21068;-58
2021/06/10 06:11:42;;;;;;;8.78;5.08;;;;;;;21.62;70.23;100371.48;1727977;80;21428;-59
2021/06/10 06:14:12;;;;;;;13.78;5.70;;;;;;;21.74;70.10;100376.38;1726031;80;21068;-58
2021/06/10 06:16:42;;;;;;;9.03;5.10;;;;;;;21.86;69.86;100379.36;1729326;80;21086;-58
2021/06/10 06:19:12;;;;;;;7.72;5.03;;;;;;;21.99;69.51;100372.83;1731103;80;21429;-57
2021/06/10 06:21:41;;;;;;;9.45;5.40;;;;;;;22.16;68.85;100374.03;1731943;81;21590;-58
2021/06/10 06:24:08;;;;;;;13.70;5.22;;;;;;;22.32;68.18;100370.77;1727783;80;21828;-59
2021/06/10 06:26:35;;;;;;;8.40;5.40;;;;;;;22.44;67.45;100383.31;1725588;80;21063;-59
2021/06/10 06:29:03;;;;;;;11.75;5.15;;;;;;;22.48;67.17;100372.13;1729088;81;21020;-58
2021/06/10 06:31:31;;;;;;;8.65;5.40;;;;;;;22.54;67.09;100376.53;1728909;81;21022;-58
2021/06/10 06:33:59;;;;;;;15.32;6.17;;;;;;;22.68;66.92;100375.78;1728870;82;21998;-60
2021/06/10 06:36:29;;;;;;;12.93;8.15;;;;;;;22.80;65.63;100380.09;1729246;82;21939;-59
2021/06/10 06:38:56;;;;;;;9.48;6.45;;;;;;;22.84;64.79;100381.52;1730244;81;21078;-59
2021/06/10 06:41:24;;;;;;;16.17;9.23;;;;;;;22.91;64.35;100383.19;1726432;80;21558;-60
2021/06/10 06:43:54;;;;;;;9.58;6.97;;;;;;;22.97;63.57;100385.86;1701036;81;21003;-59
2021/06/10 06:46:22;;;;;;;7.72;6.78;;;;;;;22.96;63.45;100389.59;1730985;81;21656;-58
2021/06/10 06:48:51;;;;;;;11.73;5.58;;;;;;;22.96;62.77;100386.86;1731802;80;21621;-59
2021/06/10 06:51:20;;;;;;;9.88;6.85;;;;;;;22.92;62.11;100388.16;1724393;81;20999;-58
2021/06/10 06:53:46;;;;;;;12.00;5.58;;;;;;;22.86;62.57;100392.32;1730017;81;21060;-58
2021/06/10 06:56:13;;;;;;;13.78;7.58;;;;;;;22.84;62.47;100377.94;1728637;80;20959;-58
2021/06/10 06:58:39;;;;;;;6.75;5.83;;;;;;;22.90;60.60;100388.29;1723835;81;21013;-58
2021/06/10 07:01:06;;;;;;;23.50;12.50;;;;;;;22.93;59.84;100384.42;1727790;82;26564;-58
2021/06/10 07:03:33;;;;;;;15.20;8.73;;;;;;;22.93;60.15;100390.73;1724293;81;20991;-58
2021/06/10 07:06:00;;;;;;;13.35;9.93;;;;;;;22.93;60.65;100389.37;1719039;81;20994;-58
2021/06/10 07:08:29;;;;;;;14.38;6.75;;;;;;;22.95;61.13;100405.12;1727786;81;21522;-59
2021/06/10 07:10:56;;;;;;;17.32;8.55;;;;;;;22.96;61.16;100378.66;1726689;81;21100;-59
2021/06/10 07:13:23;;;;;;;18.40;8.55;;;;;;;22.96;61.13;100390.96;1726518;81;21085;-59
2021/06/10 07:15:51;;;;;;;17.82;6.70;;;;;;;23.06;61.56;100382.24;1723432;81;21036;-58
2021/06/10 07:18:18;;;;;;;11.68;6.53;;;;;;;23.25;61.35;100377.77;1725317;81;21627;-59
2021/06/10 07:20:46;;;;;;;10.60;6.05;;;;;;;23.42;61.43;100381.17;1722266;80;21034;-59
2021/06/10 07:23:13;;;;;;;10.63;4.60;;;;;;;23.60;60.45;100379.05;1726669;80;21068;-59
2021/06/10 07:25:40;;;;;;;6.25;4.85;;;;;;;23.70;58.48;100373.02;1724442;81;21793;-58
2021/06/10 07:28:09;;;;;;;5.67;4.15;;;;;;;23.69;58.47;100379.51;1708169;81;21771;-58
2021/06/10 07:30:36;;;;;;;13.03;4.95;;;;;;;23.62;58.50;100390.70;1728663;81;22758;-58
2021/06/10 07:33:04;;;;;;;5.42;4.47;;;;;;;23.58;58.34;100381.07;1725410;81;21112;-59
2021/06/10 07:35:33;;;;;;;9.80;5.55;;;;;;;23.58;57.40;100389.28;1722884;80;21414;-59
2021/06/10 07:38:01;;;;;;;7.80;5.78;;;;;;;23.55;58.21;100392.31;1726683;82;21385;-59
2021/06/10 07:40:29;;;;;;;10.03;5.83;;;;;;;23.50;58.39;100389.13;1726863;81;21008;-58
2021/06/10 07:42:57;;;;;;;8.68;5.40;;;;;;;23.49;58.90;100381.94;1726904;80;21611;-58
2021/06/10 07:45:27;;;;;;;8.30;5.08;;;;;;;23.56;58.60;100384.47;1728104;81;20958;-59
2021/06/10 07:47:53;;;;;;;10.98;5.67;;;;;;;23.62;58.96;100390.70;1724510;80;20921;-58
2021/06/10 07:50:23;;;;;;;10.08;4.62;;;;;;;23.70;58.60;100388.59;1723495;80;21566;-58
2021/06/10 07:52:50;;;;;;;8.53;5.03;;;;;;;23.82;58.65;100396.13;1660862;84;21115;-58
2021/06/10 07:55:22;;;;;;;11.15;5.10;;;;;;;23.87;58.70;100391.94;1723067;81;21613;-60
2021/06/10 07:57:49;;;;;;;7.08;5.62;;;;;;;23.83;57.37;100400.58;1722892;80;21343;-60
2021/06/10 08:00:17;;;;;;;7.00;4.15;;;;;;;23.74;57.47;100371.70;1726825;80;21809;-60
2021/06/10 08:02:44;;;;;;;6.58;4.22;;;;;;;23.73;57.83;100375.98;1725215;80;76880;-59
2021/06/10 08:05:14;;;;;;;6.40;4.25;;;;;;;23.75;58.36;100383.02;1726051;80;21010;-58
2021/06/10 08:07:44;;;;;;;8.35;6.00;;;;;;;23.78;58.15;100378.28;1725490;81;21078;-58
2021/06/10 08:10:12;;;;;;;5.37;4.30;;;;;;;23.74;59.46;100396.34;1721730;80;21173;-59
2021/06/10 08:12:39;;;;;;;6.83;4.28;;;;;;;23.82;58.37;100398.86;1725086;80;21450;-60
2021/06/10 08:15:07;;;;;;;10.10;4.50;;;;;;;23.87;58.12;100393.80;1727178;82;21654;-62
2021/06/10 08:17:35;;;;;;;8.15;4.15;;;;;;;23.83;58.42;100399.22;1720752;80;21493;-61
2021/06/10 08:20:09;;;;;;;7.72;4.53;;;;;;;23.81;58.60;100399.87;1720620;80;21135;-59
2021/06/10 08:22:35;;;;;;;12.13;4.15;;;;;;;23.89;58.16;100393.13;1725886;80;21057;-59
2021/06/10 08:25:05;;;;;;;12.18;4.42;;;;;;;24.00;56.93;100403.91;1724866;80;20995;-60
2021/06/10 08:27:34;;;;;;;6.08;4.17;;;;;;;24.01;56.62;100407.03;1721980;80;21145;-60
2021/06/10 08:30:01;;;;;;;4.08;3.67;;;;;;;24.03;56.94;100408.23;1724656;80;20949;-59
2021/06/10 08:32:30;;;;;;;5.95;3.42;;;;;;;24.16;55.53;100406.52;1725372;80;21177;-59
2021/06/10 08:34:57;;;;;;;6.85;3.75;;;;;;;24.26;54.32;100404.62;1705798;82;21942;-59
2021/06/10 08:37:24;;;;;;;11.97;4.70;;;;;;;24.31;53.93;100406.87;1721492;80;21207;-59
2021/06/10 08:39:53;;;;;;;11.03;5.58;;;;;;;24.31;54.31;100406.39;1725739;80;21903;-59
2021/06/10 08:42:20;;;;;;;5.87;4.40;;;;;;;24.32;53.75;100414.11;1723467;82;21515;-58
2021/06/10 08:44:47;;;;;;;4.42;3.62;;;;;;;24.23;52.84;100406.30;1724079;80;21057;-60
2021/06/10 08:47:14;;;;;;;6.30;3.80;;;;;;;24.15;51.81;100404.80;1724658;80;21001;-58
2021/06/10 08:49:44;;;;;;;7.03;3.33;;;;;;;24.11;51.80;100404.75;1726098;80;21355;-56
2021/06/10 08:52:13;;;;;;;12.33;5.25;;;;;;;24.07;50.91;100404.70;1723479;81;21392;-58
2021/06/10 08:54:40;;;;;;;7.87;4.22;;;;;;;23.98;51.80;100401.80;1724337;82;20899;-58
2021/06/10 08:57:09;;;;;;;4.45;3.37;;;;;;;23.92;52.76;100409.25;1725405;80;21001;-58
2021/06/10 08:59:36;;;;;;;6.00;3.08;;;;;;;23.94;52.34;100400.91;1721132;80;20957;-59
2021/06/10 09:02:03;;;;;;;4.42;3.00;;;;;;;23.94;52.55;100413.22;1724837;80;21580;-58
2021/06/10 09:04:30;;;;;;;6.12;4.03;;;;;;;23.94;52.04;100403.13;1725246;81;21495;-58
2021/06/10 09:07:01;;;;;;;10.10;5.22;;;;;;;24.02;51.17;100404.66;1724878;80;37505;-58
2021/06/10 09:09:39;;;;;;;8.30;5.65;;;;;;;24.15;51.25;100402.06;1725629;80;21111;-58
2021/06/10 09:12:12;;;;;;;9.78;4.30;;;;;;;24.28;50.60;100406.70;1722070;80;20986;-60
2021/06/10 09:14:57;;;;;;;7.47;3.90;;;;;;;24.30;49.71;100406.03;1726296;81;21142;-57
2021/06/10 09:17:38;;;;;;;3.52;2.95;;;;;;;24.24;50.15;100396.19;1723401;80;21580;-57
2021/06/10 09:20:23;;;;;;;3.40;3.10;;;;;;;24.27;50.70;100404.97;1724487;81;21634;-58
2021/06/10 09:22:53;;;;;;;3.67;2.70;;;;;;;24.39;49.33;100399.27;1724286;80;20965;-59
2021/06/10 09:25:22;;;;;;;4.55;3.15;;;;;;;24.36;47.48;100406.43;1721082;80;21050;-58
2021/06/10 09:28:00;;;;;;;5.00;2.70;;;;;;;24.36;48.05;100396.84;1706406;80;21086;-58
2021/06/10 09:30:36;;;;;;;11.63;4.70;;;;;;;24.43;48.50;100395.23;1719981;80;22021;-58
2021/06/10 09:33:10;;;;;;;10.80;3.25;;;;;;;24.44;48.41;100390.11;1724183;80;21600;-58
2021/06/10 09:35:42;;;;;;;3.00;2.80;;;;;;;24.50;49.10;100388.61;1723916;82;21666;-58
2021/06/10 09:38:15;;;;;;;8.08;3.30;;;;;;;24.64;49.42;100394.06;1724118;80;21522;-58
2021/06/10 09:40:40;;;;;;;4.25;2.75;;;;;;;24.78;50.04;100394.10;1725970;82;21498;-58
2021/06/10 09:43:07;;;;;;;3.37;2.85;;;;;;;24.84;49.34;100383.34;1724465;81;21845;-58
2021/06/10 09:45:34;;;;;;;7.30;2.60;;;;;;;24.81;48.37;100393.27;1724238;80;21854;-58
2021/06/10 09:48:01;;;;;;;3.62;2.60;;;;;;;24.74;48.03;100383.39;1723135;80;21431;-58
2021/06/10 09:50:43;;;;;;;4.12;2.70;;;;;;;24.64;48.36;100378.50;1726224;80;21500;-58
2021/06/10 09:53:21;;;;;;;2.90;2.40;;;;;;;24.69;48.47;100390.38;1724390;80;21558;-58
2021/06/10 09:56:01;;;;;;;3.95;2.90;;;;;;;24.71;45.97;100382.86;1724761;80;21526;-58
2021/06/10 09:58:41;;;;;;;4.65;2.65;;;;;;;24.71;46.45;100375.48;1720771;82;21028;-58
2021/06/10 10:01:20;;;;;;;5.15;2.58;;;;;;;24.82;47.31;100378.53;1719176;81;32815;-59
2021/06/10 10:03:48;;;;;;;3.58;2.70;;;;;;;24.94;48.04;100379.69;1726667;80;21032;-59
2021/06/10 10:06:29;;;;;;;4.78;2.77;;;;;;;24.99;47.17;100373.21;1724387;81;20960;-60
2021/06/10 10:09:02;;;;;;;7.15;3.30;;;;;;;24.94;46.74;100382.43;1720731;80;21111;-59
2021/06/10 10:11:32;;;;;;;3.67;3.00;;;;;;;24.88;46.58;100372.45;1720742;80;21024;-59
2021/06/10 10:14:00;;;;;;;4.62;2.80;;;;;;;24.96;46.44;100372.16;1725272;80;20940;-59
2021/06/10 10:16:30;;;;;;;3.47;2.67;;;;;;;24.97;47.04;100377.47;1724225;82;21944;-60
2021/06/10 10:18:56;;;;;;;4.33;2.17;;;;;;;24.99;47.25;100364.49;1719663;80;21112;-60
2021/06/10 10:21:27;;;;;;;4.87;2.45;;;;;;;25.07;46.35;100363.67;1722788;82;21047;-61
2021/06/10 10:24:03;;;;;;;4.17;2.77;;;;;;;25.20;45.67;100368.78;1723097;80;21530;-59
2021/06/10 10:26:31;;;;;;;2.62;2.42;;;;;;;25.33;44.86;100368.37;1727528;80;22157;-60
2021/06/10 10:28:58;;;;;;;3.12;2.50;;;;;;;25.37;45.50;100372.51;1722892;80;21081;-60
2021/06/10 10:31:26;;;;;;;5.47;2.30;;;;;;;25.30;44.80;100366.79;1724891;82;21545;-60
2021/06/10 10:33:53;;;;;;;3.62;2.42;;;;;;;25.22;44.01;100360.38;1726339;81;20967;-60
2021/06/10 10:36:34;;;;;;;6.25;2.42;;;;;;;25.11;44.04;100354.14;1722209;80;20974;-59
2021/06/10 10:39:07;;;;;;;3.12;2.10;;;;;;;25.08;43.71;100350.31;1725452;80;22091;-60
2021/06/10 10:41:53;;;;;;;2.72;2.40;;;;;;;25.01;44.01;100349.23;1724361;81;21514;-59
2021/06/10 10:44:29;;;;;;;2.67;2.47;;;;;;;24.94;45.42;100357.75;1727781;80;21009;-60
2021/06/10 10:47:13;;;;;;;6.25;3.70;;;;;;;24.88;46.29;100353.26;1726791;80;21154;-59
2021/06/10 10:49:49;;;;;;;6.83;2.35;;;;;;;24.91;45.65;100363.55;1719208;80;21559;-60
2021/06/10 10:52:23;;;;;;;2.80;2.55;;;;;;;24.91;45.14;100355.33;1723072;81;21060;-60
2021/06/10 10:54:53;;;;;;;5.95;2.70;;;;;;;24.91;45.12;100352.59;1724704;80;21016;-59
2021/06/10 10:57:36;;;;;;;3.50;2.60;;;;;;;24.98;45.28;100340.84;1721984;80;21028;-60
2021/06/10 11:00:06;;;;;;;4.30;2.58;;;;;;;25.15;45.56;100341.83;1724952;80;21125;-60
2021/06/10 11:02:36;;;;;;;8.35;2.60;;;;;;;25.33;46.64;100335.45;1726063;80;32173;-61
2021/06/10 11:05:09;;;;;;;5.60;2.90;;;;;;;25.50;46.69;100335.56;1727780;80;21062;-58
2021/06/10 11:07:43;;;;;;;5.97;2.92;;;;;;;25.68;45.68;100334.99;1724574;82;21596;-58
2021/06/10 11:10:21;;;;;;;6.53;2.87;;;;;;;25.83;44.74;100334.39;1722520;80;21575;-58
2021/06/10 11:12:52;;;;;;;7.70;2.87;;;;;;;25.85;44.64;100329.59;1722498;80;21095;-59
2021/06/10 11:15:26;;;;;;;4.58;2.45;;;;;;;25.87;44.11;100324.30;1722153;80;21531;-59
2021/06/10 11:18:02;;;;;;;6.30;2.55;;;;;;;25.91;43.78;100322.06;1693508;82;21661;-59
2021/06/10 11:20:45;;;;;;;6.47;2.50;;;;;;;26.05;43.01;100316.97;1684353;82;21538;-59
2021/06/10 11:23:25;;;;;;;3.20;2.58;;;;;;;26.16;43.06;100318.94;1721587;80;21658;-58
2021/06/10 11:25:51;;;;;;;14.73;3.20;;;;;;;26.23;42.94;100317.77;1723960;81;21538;-58
2021/06/10 11:28:27;;;;;;;12.73;2.65;;;;;;;26.23;43.11;100313.64;1726118;81;21055;-58
2021/06/10 11:31:12;;;;;;;7.58;2.30;;;;;;;26.31;43.10;100321.89;1725227;81;22138;-61